sensor_id;sensor_type;location;lat;lon;timestamp;P1;durP1;ratioP1;P2;durP2;ratioP2
41061;SDS011;26812;42.662;23.352;2022-10-31T00:00:56;6.28;;;3.15;;
41061;SDS011;26812;42.662;23.352;2022-10-31T00:03:22;6.32;;;3.25;;
41061;SDS011;26812;42.662;23.352;2022-10-31T00:05:48;7.55;;;3.25;;
41061;SDS011;26812;42.662;23.352;2022-10-31T00:08:15;5.15;;;3.20;;
41061;SDS011;26812;42.662;23.352;2022-10-31T00:10:41;8.57;;;3.30;;
41061;SDS011;26812;42.662;23.352;2022-10-31T00:13:09;5.88;;;4.22;;
41061;SDS011;26812;42.662;23.352;2022-10-31T00:15:35;5.25;;;3.08;;
41061;SDS011;26812;42.662;23.352;2022-10-31T00:18:04;6.75;;;4.18;;
41061;SDS011;26812;42.662;23.352;2022-10-31T00:20:31;7.35;;;3.25;;
41061;SDS011;26812;42.662;23.352;2022-10-31T00:22:57;7.00;;;2.92;;
41061;SDS011;26812;42.662;23.352;2022-10-31T00:25:24;4.50;;;3.30;;
41061;SDS011;26812;42.662;23.352;2022-10-31T00:27:49;4.95;;;3.22;;
41061;SDS011;26812;42.662;23.352;2022-10-31T00:30:15;4.25;;;3.28;;
41061;SDS011;26812;42.662;23.352;2022-10-31T00:32:40;4.82;;;3.35;;
41061;SDS011;26812;42.662;23.352;2022-10-31T00:35:06;11.55;;;3.83;;
41061;SDS011;26812;42.662;23.352;2022-10-31T00:37:31;3.83;;;3.42;;
41061;SDS011;26812;42.662;23.352;2022-10-31T00:39:57;4.55;;;3.55;;
41061;SDS011;26812;42.662;23.352;2022-10-31T00:42:22;5.72;;;3.70;;
41061;SDS011;26812;42.662;23.352;2022-10-31T00:44:48;5.85;;;2.80;;
41061;SDS011;26812;42.662;23.352;2022-10-31T00:47:13;3.95;;;3.40;;
41061;SDS011;26812;42.662;23.352;2022-10-31T00:49:39;5.30;;;3.53;;
41061;SDS011;26812;42.662;23.352;2022-10-31T00:52:04;4.43;;;3.58;;
41061;SDS011;26812;42.662;23.352;2022-10-31T00:54:29;5.13;;;3.63;;
41061;SDS011;26812;42.662;23.352;2022-10-31T00:56:56;5.90;;;3.38;;
41061;SDS011;26812;42.662;23.352;2022-10-31T00:59:21;4.85;;;3.05;;
41061;SDS011;26812;42.662;23.352;2022-10-31T01:01:47;6.00;;;3.35;;
41061;SDS011;26812;42.662;23.352;2022-10-31T01:04:12;5.32;;;3.22;;
41061;SDS011;26812;42.662;23.352;2022-10-31T01:06:38;4.15;;;3.17;;
41061;SDS011;26812;42.662;23.352;2022-10-31T01:09:03;6.50;;;3.25;;
41061;SDS011;26812;42.662;23.352;2022-10-31T01:11:29;6.00;;;3.97;;
41061;SDS011;26812;42.662;23.352;2022-10-31T01:13:54;5.72;;;3.63;;
41061;SDS011;26812;42.662;23.352;2022-10-31T01:16:21;5.35;;;3.47;;
41061;SDS011;26812;42.662;23.352;2022-10-31T01:18:48;4.80;;;3.28;;
41061;SDS011;26812;42.662;23.352;2022-10-31T01:21:15;6.25;;;3.88;;
41061;SDS011;26812;42.662;23.352;2022-10-31T01:23:43;6.13;;;3.80;;
41061;SDS011;26812;42.662;23.352;2022-10-31T01:28:40;4.30;;;3.28;;
41061;SDS011;26812;42.662;23.352;2022-10-31T01:31:12;8.55;;;3.60;;
41061;SDS011;26812;42.662;23.352;2022-10-31T01:33:38;5.93;;;4.20;;
41061;SDS011;26812;42.662;23.352;2022-10-31T01:36:17;9.32;;;5.32;;
41061;SDS011;26812;42.662;23.352;2022-10-31T01:38:46;11.00;;;6.05;;
41061;SDS011;26812;42.662;23.352;2022-10-31T01:41:13;9.20;;;6.43;;
41061;SDS011;26812;42.662;23.352;2022-10-31T01:46:15;9.77;;;6.50;;
41061;SDS011;26812;42.662;23.352;2022-10-31T01:48:45;10.43;;;6.75;;
41061;SDS011;26812;42.662;23.352;2022-10-31T01:51:12;9.15;;;6.68;;
41061;SDS011;26812;42.662;23.352;2022-10-31T01:53:41;7.95;;;6.32;;
41061;SDS011;26812;42.662;23.352;2022-10-31T01:56:09;7.88;;;6.18;;
41061;SDS011;26812;42.662;23.352;2022-10-31T01:58:35;11.55;;;6.93;;
41061;SDS011;26812;42.662;23.352;2022-10-31T02:01:01;9.60;;;6.90;;
41061;SDS011;26812;42.662;23.352;2022-10-31T02:03:27;11.13;;;7.03;;
41061;SDS011;26812;42.662;23.352;2022-10-31T02:05:54;8.32;;;6.10;;
41061;SDS011;26812;42.662;23.352;2022-10-31T02:08:28;10.35;;;6.25;;
41061;SDS011;26812;42.662;23.352;2022-10-31T02:10:56;9.02;;;6.40;;
41061;SDS011;26812;42.662;23.352;2022-10-31T02:13:23;9.38;;;6.50;;
41061;SDS011;26812;42.662;23.352;2022-10-31T02:15:53;13.23;;;6.78;;
41061;SDS011;26812;42.662;23.352;2022-10-31T02:18:21;11.15;;;7.38;;
41061;SDS011;26812;42.662;23.352;2022-10-31T02:29:14;8.88;;;6.25;;
41061;SDS011;26812;42.662;23.352;2022-10-31T02:44:23;6.28;;;5.60;;
41061;SDS011;26812;42.662;23.352;2022-10-31T02:52:20;10.45;;;6.43;;
41061;SDS011;26812;42.662;23.352;2022-10-31T02:54:48;8.35;;;5.68;;
41061;SDS011;26812;42.662;23.352;2022-10-31T02:57:15;11.60;;;6.72;;
41061;SDS011;26812;42.662;23.352;2022-10-31T02:59:48;8.65;;;5.95;;
41061;SDS011;26812;42.662;23.352;2022-10-31T03:02:21;8.15;;;5.93;;
41061;SDS011;26812;42.662;23.352;2022-10-31T03:11:05;8.77;;;5.65;;
41061;SDS011;26812;42.662;23.352;2022-10-31T03:16:34;8.02;;;5.72;;
41061;SDS011;26812;42.662;23.352;2022-10-31T03:19:19;9.82;;;6.68;;
41061;SDS011;26812;42.662;23.352;2022-10-31T03:21:53;9.95;;;5.68;;
41061;SDS011;26812;42.662;23.352;2022-10-31T03:24:20;8.48;;;6.35;;
41061;SDS011;26812;42.662;23.352;2022-10-31T03:26:49;9.10;;;6.47;;
41061;SDS011;26812;42.662;23.352;2022-10-31T03:29:19;9.40;;;5.50;;
41061;SDS011;26812;42.662;23.352;2022-10-31T03:31:54;8.43;;;6.13;;
41061;SDS011;26812;42.662;23.352;2022-10-31T03:34:26;10.52;;;5.85;;
41061;SDS011;26812;42.662;23.352;2022-10-31T03:36:55;9.43;;;5.93;;
41061;SDS011;26812;42.662;23.352;2022-10-31T03:39:23;7.68;;;5.60;;
41061;SDS011;26812;42.662;23.352;2022-10-31T03:41:53;7.32;;;5.95;;
41061;SDS011;26812;42.662;23.352;2022-10-31T03:44:41;10.13;;;6.20;;
41061;SDS011;26812;42.662;23.352;2022-10-31T03:47:11;10.07;;;6.50;;
41061;SDS011;26812;42.662;23.352;2022-10-31T03:49:37;10.63;;;6.28;;
41061;SDS011;26812;42.662;23.352;2022-10-31T04:00:07;11.68;;;6.95;;
41061;SDS011;26812;42.662;23.352;2022-10-31T04:02:35;11.02;;;6.75;;
41061;SDS011;26812;42.662;23.352;2022-10-31T04:05:04;7.70;;;5.65;;
41061;SDS011;26812;42.662;23.352;2022-10-31T04:07:33;11.05;;;6.72;;
41061;SDS011;26812;42.662;23.352;2022-10-31T04:10:03;9.18;;;5.75;;
41061;SDS011;26812;42.662;23.352;2022-10-31T04:12:33;9.55;;;6.50;;
41061;SDS011;26812;42.662;23.352;2022-10-31T04:15:01;9.63;;;6.63;;
41061;SDS011;26812;42.662;23.352;2022-10-31T04:17:29;10.80;;;5.97;;
41061;SDS011;26812;42.662;23.352;2022-10-31T04:19:59;10.35;;;6.55;;
41061;SDS011;26812;42.662;23.352;2022-10-31T04:22:25;12.82;;;6.70;;
41061;SDS011;26812;42.662;23.352;2022-10-31T04:24:50;9.00;;;5.97;;
41061;SDS011;26812;42.662;23.352;2022-10-31T04:27:16;10.75;;;7.38;;
41061;SDS011;26812;42.662;23.352;2022-10-31T04:29:41;11.55;;;6.20;;
41061;SDS011;26812;42.662;23.352;2022-10-31T04:32:07;11.30;;;6.30;;
41061;SDS011;26812;42.662;23.352;2022-10-31T04:34:32;11.35;;;7.35;;
41061;SDS011;26812;42.662;23.352;2022-10-31T04:36:57;11.10;;;6.82;;
41061;SDS011;26812;42.662;23.352;2022-10-31T04:39:23;11.65;;;7.18;;
41061;SDS011;26812;42.662;23.352;2022-10-31T04:41:48;11.23;;;6.65;;
41061;SDS011;26812;42.662;23.352;2022-10-31T04:44:14;7.82;;;7.05;;
41061;SDS011;26812;42.662;23.352;2022-10-31T04:46:39;10.43;;;6.57;;
41061;SDS011;26812;42.662;23.352;2022-10-31T04:49:05;11.35;;;7.47;;
41061;SDS011;26812;42.662;23.352;2022-10-31T04:51:30;11.52;;;6.47;;
41061;SDS011;26812;42.662;23.352;2022-10-31T04:53:55;10.57;;;6.50;;
41061;SDS011;26812;42.662;23.352;2022-10-31T04:56:21;9.68;;;6.57;;
41061;SDS011;26812;42.662;23.352;2022-10-31T04:58:47;8.63;;;6.18;;
41061;SDS011;26812;42.662;23.352;2022-10-31T05:01:12;7.82;;;6.35;;
41061;SDS011;26812;42.662;23.352;2022-10-31T05:03:37;12.10;;;7.32;;
41061;SDS011;26812;42.662;23.352;2022-10-31T05:06:04;9.60;;;7.10;;
41061;SDS011;26812;42.662;23.352;2022-10-31T05:08:30;16.85;;;9.93;;
41061;SDS011;26812;42.662;23.352;2022-10-31T05:10:59;11.25;;;7.85;;
41061;SDS011;26812;42.662;23.352;2022-10-31T05:13:28;12.88;;;6.55;;
41061;SDS011;26812;42.662;23.352;2022-10-31T05:15:53;12.73;;;8.25;;
41061;SDS011;26812;42.662;23.352;2022-10-31T05:18:18;12.52;;;8.13;;
41061;SDS011;26812;42.662;23.352;2022-10-31T05:20:44;10.20;;;7.15;;
41061;SDS011;26812;42.662;23.352;2022-10-31T05:23:09;15.15;;;8.00;;
41061;SDS011;26812;42.662;23.352;2022-10-31T05:25:35;11.93;;;6.88;;
41061;SDS011;26812;42.662;23.352;2022-10-31T05:28:00;10.40;;;7.43;;
41061;SDS011;26812;42.662;23.352;2022-10-31T05:30:27;15.93;;;7.63;;
41061;SDS011;26812;42.662;23.352;2022-10-31T05:32:54;11.38;;;7.32;;
41061;SDS011;26812;42.662;23.352;2022-10-31T05:35:21;13.20;;;8.23;;
41061;SDS011;26812;42.662;23.352;2022-10-31T05:37:48;11.35;;;8.13;;
41061;SDS011;26812;42.662;23.352;2022-10-31T05:40:14;13.05;;;8.05;;
41061;SDS011;26812;42.662;23.352;2022-10-31T05:42:41;11.85;;;7.20;;
41061;SDS011;26812;42.662;23.352;2022-10-31T05:45:08;11.02;;;8.75;;
41061;SDS011;26812;42.662;23.352;2022-10-31T05:47:36;15.30;;;7.53;;
41061;SDS011;26812;42.662;23.352;2022-10-31T05:50:01;11.07;;;7.28;;
41061;SDS011;26812;42.662;23.352;2022-10-31T05:52:27;10.43;;;7.80;;
41061;SDS011;26812;42.662;23.352;2022-10-31T05:54:52;15.65;;;9.57;;
41061;SDS011;26812;42.662;23.352;2022-10-31T05:57:18;13.25;;;9.00;;
41061;SDS011;26812;42.662;23.352;2022-10-31T05:59:43;11.63;;;8.82;;
41061;SDS011;26812;42.662;23.352;2022-10-31T06:02:09;11.30;;;8.27;;
41061;SDS011;26812;42.662;23.352;2022-10-31T06:04:34;13.85;;;9.73;;
41061;SDS011;26812;42.662;23.352;2022-10-31T06:06:59;14.15;;;9.07;;
41061;SDS011;26812;42.662;23.352;2022-10-31T06:09:25;16.25;;;8.77;;
41061;SDS011;26812;42.662;23.352;2022-10-31T06:11:50;14.30;;;8.73;;
41061;SDS011;26812;42.662;23.352;2022-10-31T06:14:16;16.65;;;9.45;;
41061;SDS011;26812;42.662;23.352;2022-10-31T06:16:41;20.90;;;9.57;;
41061;SDS011;26812;42.662;23.352;2022-10-31T06:19:06;18.05;;;9.50;;
41061;SDS011;26812;42.662;23.352;2022-10-31T06:21:32;13.93;;;10.10;;
41061;SDS011;26812;42.662;23.352;2022-10-31T06:23:57;17.58;;;10.13;;
41061;SDS011;26812;42.662;23.352;2022-10-31T06:26:23;15.38;;;9.25;;
41061;SDS011;26812;42.662;23.352;2022-10-31T06:28:48;13.38;;;9.27;;
41061;SDS011;26812;42.662;23.352;2022-10-31T06:31:13;15.95;;;9.90;;
41061;SDS011;26812;42.662;23.352;2022-10-31T06:33:40;15.80;;;10.07;;
41061;SDS011;26812;42.662;23.352;2022-10-31T06:36:06;12.60;;;9.52;;
41061;SDS011;26812;42.662;23.352;2022-10-31T06:38:32;12.85;;;10.20;;
41061;SDS011;26812;42.662;23.352;2022-10-31T06:41:01;17.65;;;9.48;;
41061;SDS011;26812;42.662;23.352;2022-10-31T06:43:28;14.35;;;10.00;;
41061;SDS011;26812;42.662;23.352;2022-10-31T06:45:53;15.10;;;10.73;;
41061;SDS011;26812;42.662;23.352;2022-10-31T06:48:18;17.20;;;10.68;;
41061;SDS011;26812;42.662;23.352;2022-10-31T06:50:44;17.38;;;10.43;;
41061;SDS011;26812;42.662;23.352;2022-10-31T06:53:09;19.38;;;10.30;;
41061;SDS011;26812;42.662;23.352;2022-10-31T06:55:35;13.80;;;10.35;;
41061;SDS011;26812;42.662;23.352;2022-10-31T06:58:01;13.43;;;9.82;;
41061;SDS011;26812;42.662;23.352;2022-10-31T07:00:27;14.48;;;10.05;;
41061;SDS011;26812;42.662;23.352;2022-10-31T07:03:08;16.20;;;10.07;;
41061;SDS011;26812;42.662;23.352;2022-10-31T07:05:36;14.98;;;10.57;;
41061;SDS011;26812;42.662;23.352;2022-10-31T07:08:02;16.30;;;10.82;;
41061;SDS011;26812;42.662;23.352;2022-10-31T07:10:31;17.20;;;10.60;;
41061;SDS011;26812;42.662;23.352;2022-10-31T07:12:58;15.88;;;11.18;;
41061;SDS011;26812;42.662;23.352;2022-10-31T07:15:25;15.52;;;11.25;;
41061;SDS011;26812;42.662;23.352;2022-10-31T07:17:53;17.77;;;12.85;;
41061;SDS011;26812;42.662;23.352;2022-10-31T07:20:19;16.27;;;11.45;;
41061;SDS011;26812;42.662;23.352;2022-10-31T07:22:44;13.80;;;10.85;;
41061;SDS011;26812;42.662;23.352;2022-10-31T07:25:10;13.57;;;10.50;;
41061;SDS011;26812;42.662;23.352;2022-10-31T07:27:36;18.50;;;10.85;;
41061;SDS011;26812;42.662;23.352;2022-10-31T07:30:06;15.93;;;10.80;;
41061;SDS011;26812;42.662;23.352;2022-10-31T07:32:39;17.30;;;10.25;;
41061;SDS011;26812;42.662;23.352;2022-10-31T07:35:12;13.93;;;10.77;;
41061;SDS011;26812;42.662;23.352;2022-10-31T07:37:40;13.95;;;9.77;;
41061;SDS011;26812;42.662;23.352;2022-10-31T07:40:06;16.88;;;10.57;;
41061;SDS011;26812;42.662;23.352;2022-10-31T07:42:39;14.73;;;9.90;;
41061;SDS011;26812;42.662;23.352;2022-10-31T07:45:07;14.30;;;9.95;;
41061;SDS011;26812;42.662;23.352;2022-10-31T07:47:37;18.42;;;11.10;;
41061;SDS011;26812;42.662;23.352;2022-10-31T07:50:07;13.27;;;9.82;;
41061;SDS011;26812;42.662;23.352;2022-10-31T07:52:34;16.08;;;10.15;;
41061;SDS011;26812;42.662;23.352;2022-10-31T07:55:00;21.45;;;11.45;;
41061;SDS011;26812;42.662;23.352;2022-10-31T07:57:25;16.10;;;11.27;;
41061;SDS011;26812;42.662;23.352;2022-10-31T07:59:50;13.02;;;10.43;;
41061;SDS011;26812;42.662;23.352;2022-10-31T08:02:16;15.98;;;9.85;;
41061;SDS011;26812;42.662;23.352;2022-10-31T08:04:41;12.88;;;9.77;;
41061;SDS011;26812;42.662;23.352;2022-10-31T08:07:07;13.70;;;9.65;;
41061;SDS011;26812;42.662;23.352;2022-10-31T08:09:32;13.88;;;9.18;;
41061;SDS011;26812;42.662;23.352;2022-10-31T08:11:57;17.45;;;10.70;;
41061;SDS011;26812;42.662;23.352;2022-10-31T08:14:23;17.92;;;11.15;;
41061;SDS011;26812;42.662;23.352;2022-10-31T08:16:48;14.00;;;9.68;;
41061;SDS011;26812;42.662;23.352;2022-10-31T08:19:14;13.32;;;9.50;;
41061;SDS011;26812;42.662;23.352;2022-10-31T08:21:39;19.08;;;11.68;;
41061;SDS011;26812;42.662;23.352;2022-10-31T08:24:05;16.35;;;9.95;;
41061;SDS011;26812;42.662;23.352;2022-10-31T08:26:31;11.48;;;8.60;;
41061;SDS011;26812;42.662;23.352;2022-10-31T08:28:56;15.90;;;10.27;;
41061;SDS011;26812;42.662;23.352;2022-10-31T08:31:22;16.58;;;10.13;;
41061;SDS011;26812;42.662;23.352;2022-10-31T08:33:48;18.13;;;10.65;;
41061;SDS011;26812;42.662;23.352;2022-10-31T08:36:13;11.55;;;9.45;;
41061;SDS011;26812;42.662;23.352;2022-10-31T08:38:39;12.00;;;8.60;;
41061;SDS011;26812;42.662;23.352;2022-10-31T08:41:04;17.02;;;11.10;;
41061;SDS011;26812;42.662;23.352;2022-10-31T08:43:30;10.98;;;9.00;;
41061;SDS011;26812;42.662;23.352;2022-10-31T08:45:55;12.20;;;8.32;;
41061;SDS011;26812;42.662;23.352;2022-10-31T08:48:21;14.05;;;9.30;;
41061;SDS011;26812;42.662;23.352;2022-10-31T08:50:47;14.45;;;8.40;;
41061;SDS011;26812;42.662;23.352;2022-10-31T08:53:13;14.95;;;8.73;;
41061;SDS011;26812;42.662;23.352;2022-10-31T08:55:41;19.42;;;10.40;;
41061;SDS011;26812;42.662;23.352;2022-10-31T08:58:09;11.68;;;8.13;;
41061;SDS011;26812;42.662;23.352;2022-10-31T09:00:36;14.45;;;9.05;;
41061;SDS011;26812;42.662;23.352;2022-10-31T09:03:06;11.88;;;8.23;;
41061;SDS011;26812;42.662;23.352;2022-10-31T09:05:58;12.23;;;8.45;;
41061;SDS011;26812;42.662;23.352;2022-10-31T09:08:25;11.35;;;9.30;;
41061;SDS011;26812;42.662;23.352;2022-10-31T09:10:51;12.55;;;9.18;;
41061;SDS011;26812;42.662;23.352;2022-10-31T09:13:20;10.65;;;8.07;;
41061;SDS011;26812;42.662;23.352;2022-10-31T09:15:47;13.23;;;8.10;;
41061;SDS011;26812;42.662;23.352;2022-10-31T09:18:14;10.73;;;8.77;;
41061;SDS011;26812;42.662;23.352;2022-10-31T09:20:42;10.32;;;8.45;;
41061;SDS011;26812;42.662;23.352;2022-10-31T09:23:15;15.10;;;8.70;;
41061;SDS011;26812;42.662;23.352;2022-10-31T09:25:42;13.60;;;8.38;;
41061;SDS011;26812;42.662;23.352;2022-10-31T09:28:09;12.30;;;8.32;;
41061;SDS011;26812;42.662;23.352;2022-10-31T09:30:36;11.82;;;7.93;;
41061;SDS011;26812;42.662;23.352;2022-10-31T09:33:03;11.40;;;8.60;;
41061;SDS011;26812;42.662;23.352;2022-10-31T09:35:34;13.80;;;8.55;;
41061;SDS011;26812;42.662;23.352;2022-10-31T09:38:04;11.50;;;7.70;;
41061;SDS011;26812;42.662;23.352;2022-10-31T09:43:25;10.52;;;7.78;;
41061;SDS011;26812;42.662;23.352;2022-10-31T09:46:18;11.65;;;7.75;;
41061;SDS011;26812;42.662;23.352;2022-10-31T09:54:54;14.18;;;10.52;;
41061;SDS011;26812;42.662;23.352;2022-10-31T09:57:25;12.98;;;10.18;;
41061;SDS011;26812;42.662;23.352;2022-10-31T09:59:53;12.75;;;8.45;;
41061;SDS011;26812;42.662;23.352;2022-10-31T10:02:43;12.20;;;6.20;;
41061;SDS011;26812;42.662;23.352;2022-10-31T10:05:25;10.73;;;6.65;;
41061;SDS011;26812;42.662;23.352;2022-10-31T10:10:51;8.68;;;5.43;;
41061;SDS011;26812;42.662;23.352;2022-10-31T10:16:35;8.35;;;4.65;;
41061;SDS011;26812;42.662;23.352;2022-10-31T10:27:21;20.55;;;8.27;;
41061;SDS011;26812;42.662;23.352;2022-10-31T10:30:13;9.48;;;4.57;;
41061;SDS011;26812;42.662;23.352;2022-10-31T10:32:58;5.18;;;3.95;;
41061;SDS011;26812;42.662;23.352;2022-10-31T10:35:35;7.38;;;3.13;;
41061;SDS011;26812;42.662;23.352;2022-10-31T10:41:18;5.25;;;3.00;;
41061;SDS011;26812;42.662;23.352;2022-10-31T10:43:48;7.05;;;3.80;;
41061;SDS011;26812;42.662;23.352;2022-10-31T10:46:27;6.55;;;2.70;;
41061;SDS011;26812;42.662;23.352;2022-10-31T10:49:20;9.63;;;3.20;;
41061;SDS011;26812;42.662;23.352;2022-10-31T11:00:26;6.13;;;3.28;;
41061;SDS011;26812;42.662;23.352;2022-10-31T11:02:55;8.30;;;2.60;;
41061;SDS011;26812;42.662;23.352;2022-10-31T11:05:26;5.90;;;3.25;;
41061;SDS011;26812;42.662;23.352;2022-10-31T11:07:53;5.80;;;3.10;;
41061;SDS011;26812;42.662;23.352;2022-10-31T11:10:19;4.00;;;2.55;;
41061;SDS011;26812;42.662;23.352;2022-10-31T11:13:01;4.78;;;2.50;;
41061;SDS011;26812;42.662;23.352;2022-10-31T11:18:41;5.95;;;3.00;;
41061;SDS011;26812;42.662;23.352;2022-10-31T11:26:51;7.22;;;2.50;;
41061;SDS011;26812;42.662;23.352;2022-10-31T11:29:20;3.85;;;1.70;;
41061;SDS011;26812;42.662;23.352;2022-10-31T11:31:48;7.10;;;3.53;;
41061;SDS011;26812;42.662;23.352;2022-10-31T11:37:04;4.10;;;2.10;;
41061;SDS011;26812;42.662;23.352;2022-10-31T11:42:06;8.10;;;2.42;;
41061;SDS011;26812;42.662;23.352;2022-10-31T11:44:32;7.97;;;2.63;;
41061;SDS011;26812;42.662;23.352;2022-10-31T11:47:02;7.57;;;3.10;;
41061;SDS011;26812;42.662;23.352;2022-10-31T11:52:13;8.43;;;3.10;;
41061;SDS011;26812;42.662;23.352;2022-10-31T11:57:29;3.67;;;2.40;;
41061;SDS011;26812;42.662;23.352;2022-10-31T11:59:58;8.20;;;2.90;;
41061;SDS011;26812;42.662;23.352;2022-10-31T12:02:25;6.65;;;2.60;;
41061;SDS011;26812;42.662;23.352;2022-10-31T12:04:54;6.70;;;2.30;;
41061;SDS011;26812;42.662;23.352;2022-10-31T12:07:27;4.85;;;2.60;;
41061;SDS011;26812;42.662;23.352;2022-10-31T12:09:53;3.67;;;2.63;;
41061;SDS011;26812;42.662;23.352;2022-10-31T12:15:35;6.30;;;2.80;;
41061;SDS011;26812;42.662;23.352;2022-10-31T12:23:41;6.63;;;2.78;;
41061;SDS011;26812;42.662;23.352;2022-10-31T12:26:14;6.13;;;2.90;;
41061;SDS011;26812;42.662;23.352;2022-10-31T12:34:18;10.15;;;2.97;;
41061;SDS011;26812;42.662;23.352;2022-10-31T12:45:25;5.93;;;2.60;;
41061;SDS011;26812;42.662;23.352;2022-10-31T12:59:47;5.80;;;2.47;;
41061;SDS011;26812;42.662;23.352;2022-10-31T13:05:02;7.85;;;3.28;;
41061;SDS011;26812;42.662;23.352;2022-10-31T13:10:24;7.55;;;2.70;;
41061;SDS011;26812;42.662;23.352;2022-10-31T13:16:14;6.20;;;2.75;;
41061;SDS011;26812;42.662;23.352;2022-10-31T13:18:53;8.48;;;4.07;;
41061;SDS011;26812;42.662;23.352;2022-10-31T13:21:23;7.13;;;2.70;;
41061;SDS011;26812;42.662;23.352;2022-10-31T13:23:52;6.30;;;3.05;;
41061;SDS011;26812;42.662;23.352;2022-10-31T13:28:54;4.85;;;2.50;;
41061;SDS011;26812;42.662;23.352;2022-10-31T13:31:27;3.58;;;2.40;;
41061;SDS011;26812;42.662;23.352;2022-10-31T13:34:03;6.63;;;2.60;;
41061;SDS011;26812;42.662;23.352;2022-10-31T13:36:38;3.83;;;2.40;;
41061;SDS011;26812;42.662;23.352;2022-10-31T13:44:42;4.00;;;2.30;;
41061;SDS011;26812;42.662;23.352;2022-10-31T13:50:28;5.63;;;2.67;;
41061;SDS011;26812;42.662;23.352;2022-10-31T13:53:11;5.63;;;2.65;;
41061;SDS011;26812;42.662;23.352;2022-10-31T13:55:42;5.53;;;2.92;;
41061;SDS011;26812;42.662;23.352;2022-10-31T13:58:22;4.93;;;2.45;;
41061;SDS011;26812;42.662;23.352;2022-10-31T14:03:35;6.32;;;2.80;;
41061;SDS011;26812;42.662;23.352;2022-10-31T14:06:02;4.13;;;2.35;;
41061;SDS011;26812;42.662;23.352;2022-10-31T14:08:30;7.18;;;3.08;;
41061;SDS011;26812;42.662;23.352;2022-10-31T14:10:59;6.32;;;2.85;;
41061;SDS011;26812;42.662;23.352;2022-10-31T14:16:22;4.70;;;2.38;;
41061;SDS011;26812;42.662;23.352;2022-10-31T14:18:56;11.60;;;3.55;;
41061;SDS011;26812;42.662;23.352;2022-10-31T14:21:36;8.05;;;3.88;;
41061;SDS011;26812;42.662;23.352;2022-10-31T14:24:13;8.60;;;2.92;;
41061;SDS011;26812;42.662;23.352;2022-10-31T14:26:52;5.65;;;2.90;;
41061;SDS011;26812;42.662;23.352;2022-10-31T14:29:27;9.05;;;3.42;;
41061;SDS011;26812;42.662;23.352;2022-10-31T14:34:43;8.52;;;3.85;;
41061;SDS011;26812;42.662;23.352;2022-10-31T14:37:20;6.05;;;2.72;;
41061;SDS011;26812;42.662;23.352;2022-10-31T14:40:10;6.15;;;2.67;;
41061;SDS011;26812;42.662;23.352;2022-10-31T14:51:18;6.07;;;3.30;;
41061;SDS011;26812;42.662;23.352;2022-10-31T14:53:49;8.38;;;4.07;;
41061;SDS011;26812;42.662;23.352;2022-10-31T14:56:19;7.43;;;4.07;;
41061;SDS011;26812;42.662;23.352;2022-10-31T14:58:48;9.65;;;4.25;;
41061;SDS011;26812;42.662;23.352;2022-10-31T15:01:19;11.57;;;3.70;;
41061;SDS011;26812;42.662;23.352;2022-10-31T15:03:46;8.95;;;4.53;;
41061;SDS011;26812;42.662;23.352;2022-10-31T15:06:13;11.65;;;4.68;;
41061;SDS011;26812;42.662;23.352;2022-10-31T15:08:44;12.43;;;5.35;;
41061;SDS011;26812;42.662;23.352;2022-10-31T15:11:21;9.63;;;4.78;;
41061;SDS011;26812;42.662;23.352;2022-10-31T15:16:21;11.93;;;4.90;;
41061;SDS011;26812;42.662;23.352;2022-10-31T15:18:53;14.23;;;5.28;;
41061;SDS011;26812;42.662;23.352;2022-10-31T15:21:24;15.45;;;5.15;;
41061;SDS011;26812;42.662;23.352;2022-10-31T15:23:53;11.45;;;5.15;;
41061;SDS011;26812;42.662;23.352;2022-10-31T15:26:21;9.30;;;4.57;;
41061;SDS011;26812;42.662;23.352;2022-10-31T15:28:58;7.43;;;4.95;;
41061;SDS011;26812;42.662;23.352;2022-10-31T15:31:24;10.70;;;4.53;;
41061;SDS011;26812;42.662;23.352;2022-10-31T15:33:50;10.85;;;6.03;;
41061;SDS011;26812;42.662;23.352;2022-10-31T15:38:44;16.83;;;7.53;;
41061;SDS011;26812;42.662;23.352;2022-10-31T15:44:20;13.35;;;6.13;;
41061;SDS011;26812;42.662;23.352;2022-10-31T15:47:02;13.85;;;6.10;;
41061;SDS011;26812;42.662;23.352;2022-10-31T15:52:41;22.25;;;7.82;;
41061;SDS011;26812;42.662;23.352;2022-10-31T15:57:38;15.27;;;7.85;;
41061;SDS011;26812;42.662;23.352;2022-10-31T16:00:06;23.00;;;9.13;;
41061;SDS011;26812;42.662;23.352;2022-10-31T16:02:46;24.10;;;7.90;;
41061;SDS011;26812;42.662;23.352;2022-10-31T16:05:15;18.65;;;7.78;;
41061;SDS011;26812;42.662;23.352;2022-10-31T16:07:49;22.65;;;8.55;;
41061;SDS011;26812;42.662;23.352;2022-10-31T16:10:22;24.85;;;10.02;;
41061;SDS011;26812;42.662;23.352;2022-10-31T16:12:50;18.63;;;8.27;;
41061;SDS011;26812;42.662;23.352;2022-10-31T16:15:17;18.52;;;9.25;;
41061;SDS011;26812;42.662;23.352;2022-10-31T16:17:45;26.75;;;11.93;;
41061;SDS011;26812;42.662;23.352;2022-10-31T16:20:19;20.45;;;9.10;;
41061;SDS011;26812;42.662;23.352;2022-10-31T16:22:49;23.48;;;10.55;;
41061;SDS011;26812;42.662;23.352;2022-10-31T16:25:18;21.63;;;10.35;;
41061;SDS011;26812;42.662;23.352;2022-10-31T16:28:01;22.02;;;10.35;;
41061;SDS011;26812;42.662;23.352;2022-10-31T16:30:36;27.88;;;9.68;;
41061;SDS011;26812;42.662;23.352;2022-10-31T16:33:25;30.55;;;10.70;;
41061;SDS011;26812;42.662;23.352;2022-10-31T16:35:57;21.67;;;9.60;;
41061;SDS011;26812;42.662;23.352;2022-10-31T16:38:23;14.63;;;7.43;;
41061;SDS011;26812;42.662;23.352;2022-10-31T16:40:49;24.42;;;9.48;;
41061;SDS011;26812;42.662;23.352;2022-10-31T16:43:17;22.88;;;13.30;;
41061;SDS011;26812;42.662;23.352;2022-10-31T16:45:44;29.20;;;11.55;;
41061;SDS011;26812;42.662;23.352;2022-10-31T16:48:18;20.05;;;10.73;;
41061;SDS011;26812;42.662;23.352;2022-10-31T16:50:46;20.95;;;9.15;;
41061;SDS011;26812;42.662;23.352;2022-10-31T16:53:12;23.25;;;9.07;;
41061;SDS011;26812;42.662;23.352;2022-10-31T16:58:30;26.65;;;9.73;;
41061;SDS011;26812;42.662;23.352;2022-10-31T17:01:01;21.48;;;10.50;;
41061;SDS011;26812;42.662;23.352;2022-10-31T17:03:30;18.40;;;9.60;;
41061;SDS011;26812;42.662;23.352;2022-10-31T17:05:56;25.38;;;10.10;;
41061;SDS011;26812;42.662;23.352;2022-10-31T17:08:21;20.92;;;10.80;;
41061;SDS011;26812;42.662;23.352;2022-10-31T17:10:50;16.80;;;10.52;;
41061;SDS011;26812;42.662;23.352;2022-10-31T17:13:18;14.45;;;8.45;;
41061;SDS011;26812;42.662;23.352;2022-10-31T17:15:47;17.42;;;9.65;;
41061;SDS011;26812;42.662;23.352;2022-10-31T17:18:16;26.40;;;10.50;;
41061;SDS011;26812;42.662;23.352;2022-10-31T17:20:42;19.92;;;10.23;;
41061;SDS011;26812;42.662;23.352;2022-10-31T17:23:10;22.95;;;10.13;;
41061;SDS011;26812;42.662;23.352;2022-10-31T17:25:36;14.95;;;8.68;;
41061;SDS011;26812;42.662;23.352;2022-10-31T17:28:02;21.38;;;10.05;;
41061;SDS011;26812;42.662;23.352;2022-10-31T17:30:28;19.33;;;9.15;;
41061;SDS011;26812;42.662;23.352;2022-10-31T17:32:55;20.15;;;9.73;;
41061;SDS011;26812;42.662;23.352;2022-10-31T17:35:21;16.70;;;9.50;;
41061;SDS011;26812;42.662;23.352;2022-10-31T17:37:46;19.33;;;8.82;;
41061;SDS011;26812;42.662;23.352;2022-10-31T17:40:16;28.38;;;9.73;;
41061;SDS011;26812;42.662;23.352;2022-10-31T17:42:52;13.18;;;8.20;;
41061;SDS011;26812;42.662;23.352;2022-10-31T17:45:20;19.27;;;9.98;;